Time;durP1;ratioP1;P1;durP2;ratioP2;P2;SDS_P1;SDS_P2;PMS_P1;PMS_P2;Temp;Humidity;BMP_temperature;BMP_pressure;BME280_temperature;BME280_humidity;BME280_pressure;Samples;Min_cycle;Max_cycle;Signal;HPM_P1;HPM_P2
2023/04/28 00:01:40;;;;;;;36.72;17.70;;;;;;;10.57;96.96;100005.72;5028503;28;20069;-46
2023/04/28 00:04:07;;;;;;;42.97;19.20;;;;;;;10.58;97.20;100009.28;5028444;28;20033;-44
2023/04/28 00:06:35;;;;;;;37.20;20.70;;;;;;;10.58;97.17;100012.06;5029063;28;20046;-45
2023/04/28 00:09:02;;;;;;;39.20;20.85;;;;;;;10.60;97.34;100018.84;5028475;28;20053;-48
2023/04/28 00:11:29;;;;;;;34.72;19.00;;;;;;;10.61;97.29;100022.41;5022831;28;20049;-44
2023/04/28 00:13:55;;;;;;;34.63;18.63;;;;;;;10.59;97.45;100010.91;5015674;28;20168;-45
2023/04/28 00:16:22;;;;;;;42.47;21.80;;;;;;;10.63;97.60;100015.34;5028853;28;20052;-50
2023/04/28 00:18:50;;;;;;;39.67;20.52;;;;;;;10.62;97.47;100021.22;5029166;28;20041;-44
2023/04/28 00:21:16;;;;;;;36.60;20.45;;;;;;;10.60;97.56;100006.94;5028766;28;20135;-46
2023/04/28 00:23:43;;;;;;;43.63;23.35;;;;;;;10.61;97.59;100003.03;5027463;28;20059;-45
2023/04/28 00:26:11;;;;;;;37.97;19.92;;;;;;;10.59;97.83;100013.69;5028842;28;20403;-45
2023/04/28 00:28:37;;;;;;;37.45;19.83;;;;;;;10.57;97.88;100008.47;5029577;28;20116;-44
2023/04/28 00:31:12;;;;;;;37.60;19.00;;;;;;;10.55;97.93;100008.06;5041391;28;20132;-45
2023/04/28 00:33:39;;;;;;;43.63;19.17;;;;;;;10.53;97.71;100001.28;5032752;28;20076;-45
2023/04/28 00:36:07;;;;;;;34.40;19.08;;;;;;;10.50;97.79;99994.50;5032588;28;20049;-46
2023/04/28 00:38:34;;;;;;;38.72;18.25;;;;;;;10.51;98.15;100000.84;5033111;28;20072;-45
2023/04/28 00:41:00;;;;;;;43.08;19.77;;;;;;;10.48;98.22;99994.06;5032433;28;20376;-45
2023/04/28 00:43:27;;;;;;;41.63;19.15;;;;;;;10.47;98.21;100000.75;5031103;28;20438;-44
2023/04/28 00:45:54;;;;;;;41.05;20.40;;;;;;;10.45;98.49;100003.09;5035186;28;20136;-48
2023/04/28 00:48:22;;;;;;;39.92;20.00;;;;;;;10.45;98.60;100011.41;5032576;28;20385;-44
2023/04/28 00:50:50;;;;;;;44.05;19.88;;;;;;;10.47;98.76;99999.94;5032241;28;20045;-44
2023/04/28 00:53:17;;;;;;;41.55;21.05;;;;;;;10.49;98.62;100005.91;5032296;28;20037;-44
2023/04/28 00:55:45;;;;;;;40.22;18.58;;;;;;;10.49;98.97;100008.69;5032454;28;20475;-45
2023/04/28 00:58:12;;;;;;;35.88;18.27;;;;;;;10.51;98.90;100009.16;5032351;28;20057;-45
2023/04/28 01:00:39;;;;;;;42.13;19.63;;;;;;;10.51;99.05;100011.91;5031804;28;20484;-45
2023/04/28 01:03:06;;;;;;;41.72;20.77;;;;;;;10.53;99.16;100017.88;5032448;28;20122;-46
2023/04/28 01:05:34;;;;;;;44.38;20.58;;;;;;;10.54;99.21;100025.81;5030575;28;20045;-45
2023/04/28 01:08:01;;;;;;;37.40;17.92;;;;;;;10.55;99.18;100023.84;5032311;28;20454;-44
2023/04/28 01:10:29;;;;;;;35.95;19.38;;;;;;;10.54;99.45;100014.75;5025190;28;20049;-47
2023/04/28 01:12:56;;;;;;;34.25;17.55;;;;;;;10.55;99.51;100032.97;5032227;28;20108;-45
2023/04/28 01:15:24;;;;;;;37.30;19.48;;;;;;;10.57;99.46;100024.28;5031617;28;20053;-44
2023/04/28 01:17:51;;;;;;;36.90;19.42;;;;;;;10.60;99.61;100023.56;5032078;28;20072;-45
2023/04/28 01:20:18;;;;;;;33.17;17.08;;;;;;;10.60;99.63;100024.38;5032515;28;20120;-44
2023/04/28 01:22:45;;;;;;;36.00;18.15;;;;;;;10.62;99.85;100029.53;5031473;28;20051;-45
2023/04/28 01:25:11;;;;;;;34.78;18.17;;;;;;;10.61;99.91;100033.47;5031526;28;20048;-45
2023/04/28 01:27:38;;;;;;;33.88;17.17;;;;;;;10.62;99.88;100037.84;5031742;28;20056;-46
2023/04/28 01:30:05;;;;;;;37.78;18.92;;;;;;;10.64;99.92;100033.56;5037049;28;20429;-45
2023/04/28 01:32:32;;;;;;;27.80;16.13;;;;;;;10.64;99.94;100036.34;5037087;28;20045;-44
2023/04/28 01:34:59;;;;;;;35.08;16.90;;;;;;;10.66;100.00;100035.97;5031396;28;20053;-45
2023/04/28 01:37:25;;;;;;;30.70;16.50;;;;;;;10.66;100.00;100036.75;5031908;28;20065;-46
2023/04/28 01:39:52;;;;;;;29.25;15.82;;;;;;;10.67;100.00;100045.88;5031343;28;20045;-44
2023/04/28 01:42:19;;;;;;;35.33;18.95;;;;;;;10.69;100.00;100035.25;5030258;28;20049;-44
2023/04/28 01:44:45;;;;;;;34.97;18.90;;;;;;;10.68;100.00;100028.09;5032640;28;20049;-45
2023/04/28 01:47:12;;;;;;;36.03;17.85;;;;;;;10.67;100.00;100032.03;5031515;28;20049;-45
2023/04/28 01:49:39;;;;;;;34.45;18.38;;;;;;;10.66;100.00;100044.25;5031126;28;20041;-44
2023/04/28 01:52:05;;;;;;;38.10;19.08;;;;;;;10.63;100.00;100048.56;5031217;28;20048;-45
2023/04/28 01:54:32;;;;;;;36.95;18.15;;;;;;;10.64;100.00;100057.69;5031770;28;20112;-44
2023/04/28 01:56:59;;;;;;;34.60;17.75;;;;;;;10.66;100.00;100058.09;5030997;28;20041;-44
2023/04/28 01:59:26;;;;;;;40.65;18.88;;;;;;;10.68;100.00;100066.84;5030736;28;20103;-45
2023/04/28 02:01:52;;;;;;;37.80;19.20;;;;;;;10.68;100.00;100061.31;5030443;28;20075;-44
2023/04/28 02:04:19;;;;;;;39.05;20.02;;;;;;;10.69;100.00;100063.72;5030846;28;20748;-45
2023/04/28 02:06:46;;;;;;;36.22;19.85;;;;;;;10.70;100.00;100061.75;5030832;28;20045;-45
2023/04/28 02:09:12;;;;;;;38.28;19.02;;;;;;;10.72;100.00;100067.75;5029077;28;20049;-46
2023/04/28 02:11:39;;;;;;;39.80;18.77;;;;;;;10.74;100.00;100065.41;5039467;28;20040;-44
2023/04/28 02:14:06;;;;;;;32.53;17.33;;;;;;;10.74;100.00;100065.41;5030842;28;20119;-44
2023/04/28 02:16:32;;;;;;;33.90;18.50;;;;;;;10.74;100.00;100065.41;5030610;28;20410;-45
2023/04/28 02:18:59;;;;;;;31.17;19.25;;;;;;;10.73;100.00;100064.59;5030726;28;20392;-44
2023/04/28 02:21:26;;;;;;;39.20;18.95;;;;;;;10.75;100.00;100072.56;5030358;28;20049;-45
2023/04/28 02:23:53;;;;;;;35.38;16.65;;;;;;;10.75;100.00;100078.09;5030655;28;20059;-44
2023/04/28 02:26:20;;;;;;;38.72;19.02;;;;;;;10.73;100.00;100078.44;5030517;28;20046;-45
2023/04/28 02:28:47;;;;;;;34.92;17.45;;;;;;;10.75;100.00;100083.63;5030800;28;20049;-45
2023/04/28 02:31:15;;;;;;;37.67;18.65;;;;;;;10.75;100.00;100078.09;5042867;28;20549;-44
2023/04/28 02:33:41;;;;;;;38.55;19.67;;;;;;;10.75;100.00;100080.88;5030399;28;20053;-47
2023/04/28 02:36:09;;;;;;;40.47;19.52;;;;;;;10.73;100.00;100077.63;5030329;28;20487;-45
2023/04/28 02:38:36;;;;;;;38.10;19.45;;;;;;;10.73;100.00;100085.94;5030287;28;20054;-44
2023/04/28 02:41:05;;;;;;;37.42;19.23;;;;;;;10.74;100.00;100076.47;5029926;28;20052;-45
2023/04/28 02:43:32;;;;;;;33.92;18.73;;;;;;;10.74;100.00;100093.09;5029902;28;20064;-46
2023/04/28 02:45:59;;;;;;;34.25;19.58;;;;;;;10.73;100.00;100083.97;5031468;28;20057;-46
2023/04/28 02:48:26;;;;;;;35.13;18.08;;;;;;;10.73;100.00;100094.25;5030460;28;20132;-45
2023/04/28 02:50:53;;;;;;;45.13;18.05;;;;;;;10.74;100.00;100096.66;5029832;28;20416;-45
2023/04/28 02:53:21;;;;;;;38.40;19.05;;;;;;;10.75;100.00;100089.16;5029708;28;20468;-46
2023/04/28 02:55:48;;;;;;;31.20;19.27;;;;;;;10.74;100.00;100098.63;5029665;28;20041;-45
2023/04/28 02:58:16;;;;;;;35.83;18.42;;;;;;;10.74;100.00;100098.63;5028714;28;20043;-45
2023/04/28 03:00:44;;;;;;;40.40;18.77;;;;;;;10.75;100.00;100100.25;5053436;23;20326;-49
2023/04/28 03:03:11;;;;;;;40.00;19.80;;;;;;;10.74;100.00;100095.84;5056849;28;20049;-51
2023/04/28 03:05:39;;;;;;;40.88;20.63;;;;;;;10.74;100.00;100106.94;5049655;28;20486;-46
2023/04/28 03:08:05;;;;;;;36.88;17.60;;;;;;;10.72;100.00;100103.72;5049837;28;20052;-47
2023/04/28 03:10:32;;;;;;;43.78;20.13;;;;;;;10.72;100.00;100107.28;5042783;28;20398;-45
2023/04/28 03:12:59;;;;;;;44.85;21.60;;;;;;;10.72;100.00;100112.03;5049478;28;20041;-50
2023/04/28 03:15:26;;;;;;;47.70;22.50;;;;;;;10.70;100.00;100095.78;5049461;28;20128;-45
2023/04/28 03:17:53;;;;;;;47.25;20.77;;;;;;;10.69;100.00;100101.69;5049930;28;20053;-46
2023/04/28 03:20:19;;;;;;;50.97;22.65;;;;;;;10.69;100.00;100108.03;5049148;28;20581;-45
2023/04/28 03:22:46;;;;;;;43.88;19.23;;;;;;;10.70;100.00;100111.56;5049411;28;20040;-46
2023/04/28 03:25:15;;;;;;;41.38;18.40;;;;;;;10.71;100.00;100110.41;5049215;28;20176;-45
2023/04/28 03:27:42;;;;;;;47.22;19.45;;;;;;;10.69;100.00;100104.44;5049108;28;20532;-49
2023/04/28 03:30:09;;;;;;;42.53;19.23;;;;;;;10.72;100.00;100112.03;5055346;28;20055;-49
2023/04/28 03:32:36;;;;;;;46.95;18.98;;;;;;;10.74;100.00;100109.69;5037734;28;20402;-47
2023/04/28 03:35:03;;;;;;;40.45;19.10;;;;;;;10.75;100.00;100119.63;5049448;28;20049;-46
2023/04/28 03:37:29;;;;;;;57.55;22.48;;;;;;;10.75;100.00;100125.16;5049072;28;20099;-48
2023/04/28 03:39:56;;;;;;;49.65;19.35;;;;;;;10.75;100.00;100125.16;5049279;28;20091;-45
2023/04/28 03:42:23;;;;;;;41.75;18.13;;;;;;;10.73;100.00;100124.69;5049474;28;20048;-46
2023/04/28 03:44:49;;;;;;;44.72;21.25;;;;;;;10.73;100.00;100124.69;5050786;28;20048;-45
2023/04/28 03:47:16;;;;;;;37.65;17.55;;;;;;;10.73;100.00;100127.47;5048635;28;20052;-45
2023/04/28 03:49:43;;;;;;;48.30;21.33;;;;;;;10.73;100.00;100130.22;5048537;28;20045;-45
2023/04/28 03:52:09;;;;;;;47.28;19.63;;;;;;;10.73;100.00;100135.78;5049535;28;20048;-46
2023/04/28 03:54:37;;;;;;;55.28;20.63;;;;;;;10.73;100.00;100147.66;5049070;28;20072;-45
2023/04/28 03:57:03;;;;;;;43.20;18.70;;;;;;;10.74;100.00;100142.94;5048604;28;20048;-45
2023/04/28 03:59:30;;;;;;;58.90;19.67;;;;;;;10.74;100.00;100140.97;5031007;28;20044;-45
2023/04/28 04:01:57;;;;;;;48.75;20.63;;;;;;;10.77;100.00;100142.22;5048423;28;20049;-45
2023/04/28 04:04:25;;;;;;;45.28;18.55;;;;;;;10.75;100.00;100139.78;5048953;28;20485;-46
2023/04/28 04:06:53;;;;;;;39.95;18.48;;;;;;;10.77;100.00;100142.22;5047732;28;20407;-45
2023/04/28 04:09:22;;;;;;;42.92;18.45;;;;;;;10.76;100.00;100144.16;5048448;28;20659;-45
2023/04/28 04:11:48;;;;;;;43.20;19.40;;;;;;;10.75;100.00;100139.78;5048598;28;20041;-45
2023/04/28 04:14:15;;;;;;;53.55;20.33;;;;;;;10.75;100.00;100139.78;5048840;28;20107;-44
2023/04/28 04:16:42;;;;;;;46.92;21.75;;;;;;;10.75;100.00;100145.31;5048155;28;20041;-48
2023/04/28 04:19:09;;;;;;;62.47;21.90;;;;;;;10.74;100.00;100142.94;5048318;28;20060;-44
2023/04/28 04:21:35;;;;;;;58.92;22.33;;;;;;;10.74;100.00;100142.94;5048347;28;20572;-45
2023/04/28 04:24:02;;;;;;;50.88;22.95;;;;;;;10.73;100.00;100147.66;5048760;28;20091;-49
2023/04/28 04:26:29;;;;;;;56.33;22.73;;;;;;;10.74;100.00;100145.69;5048527;28;20049;-45
2023/04/28 04:28:56;;;;;;;55.22;22.48;;;;;;;10.75;100.00;100139.00;5048270;28;20106;-48
2023/04/28 04:31:22;;;;;;;59.75;23.00;;;;;;;10.75;100.00;100150.09;5059852;28;20049;-47
2023/04/28 04:33:49;;;;;;;56.17;21.90;;;;;;;10.75;100.00;100147.31;5048819;28;20044;-46
2023/04/28 04:36:16;;;;;;;59.97;24.20;;;;;;;10.75;100.00;100156.41;5030211;28;20051;-45
2023/04/28 04:38:42;;;;;;;52.63;22.80;;;;;;;10.75;100.00;100148.09;5047995;28;20095;-47
2023/04/28 04:41:09;;;;;;;60.40;24.15;;;;;;;10.75;100.00;100152.84;5047973;28;20041;-46
2023/04/28 04:43:36;;;;;;;48.45;23.00;;;;;;;10.76;100.00;100157.19;5049112;28;20049;-44
2023/04/28 04:46:03;;;;;;;60.92;24.95;;;;;;;10.75;100.00;100161.16;5046446;28;20051;-44
2023/04/28 04:48:29;;;;;;;63.45;25.55;;;;;;;10.76;100.00;100157.19;5048283;28;20044;-45
2023/04/28 04:50:56;;;;;;;54.88;25.17;;;;;;;10.75;100.00;100161.16;5048231;28;20049;-52
2023/04/28 04:53:23;;;;;;;58.45;24.92;;;;;;;10.75;100.00;100158.38;5048544;28;20051;-44
2023/04/28 04:55:49;;;;;;;57.63;23.00;;;;;;;10.74;100.00;100163.13;5047981;28;20036;-45
2023/04/28 04:58:16;;;;;;;49.88;21.83;;;;;;;10.74;100.00;100170.63;5047920;28;20053;-45
2023/04/28 05:00:43;;;;;;;57.30;25.48;;;;;;;10.74;100.00;100173.38;5048512;28;20090;-46
2023/04/28 05:03:10;;;;;;;59.53;26.00;;;;;;;10.75;100.00;100172.22;5048243;28;20440;-45
2023/04/28 05:05:37;;;;;;;67.70;28.65;;;;;;;10.75;100.00;100167.47;5048005;28;20494;-46
2023/04/28 05:08:04;;;;;;;56.40;25.30;;;;;;;10.77;100.00;100176.25;5048189;28;20045;-45
2023/04/28 05:10:31;;;;;;;51.67;24.73;;;;;;;10.75;100.00;100177.75;5039150;28;20486;-44
2023/04/28 05:12:58;;;;;;;58.28;26.08;;;;;;;10.72;100.00;100179.25;5048083;28;20479;-44
2023/04/28 05:15:25;;;;;;;49.40;22.63;;;;;;;10.73;100.00;100180.06;5048078;28;20068;-46
2023/04/28 05:17:51;;;;;;;52.55;25.65;;;;;;;10.74;100.00;100176.97;5051075;28;20110;-44
2023/04/28 05:20:18;;;;;;;50.10;24.25;;;;;;;10.75;100.00;100181.31;5038901;28;20513;-50
2023/04/28 05:22:45;;;;;;;48.17;24.73;;;;;;;10.78;100.00;100186.13;5033814;28;20731;-50
2023/04/28 05:25:12;;;;;;;42.05;21.45;;;;;;;10.79;100.00;100195.25;5038669;28;20048;-46
2023/04/28 05:27:39;;;;;;;44.08;23.98;;;;;;;10.81;100.00;100199.25;5051659;28;20064;-46
2023/04/28 05:30:08;;;;;;;49.53;22.73;;;;;;;10.81;100.00;100198.47;5055553;28;20451;-44
2023/04/28 05:32:35;;;;;;;44.70;21.90;;;;;;;10.81;100.00;100210.34;5057360;28;20128;-44
2023/04/28 05:35:02;;;;;;;41.92;21.35;;;;;;;10.82;100.00;100206.41;5052330;28;20368;-45
2023/04/28 05:37:29;;;;;;;45.60;21.77;;;;;;;10.83;100.00;100212.75;5051228;28;20403;-44
2023/04/28 05:39:55;;;;;;;47.53;22.75;;;;;;;10.84;100.00;100214.34;5051488;28;20051;-44
2023/04/28 05:42:22;;;;;;;46.45;21.60;;;;;;;10.84;100.00;100220.69;5051106;28;20175;-47
2023/04/28 05:44:49;;;;;;;53.22;24.00;;;;;;;10.85;100.00;100221.50;5053162;28;20037;-46
2023/04/28 05:47:15;;;;;;;50.03;23.13;;;;;;;10.85;100.00;100221.50;5051193;28;20863;-44
2023/04/28 05:49:42;;;;;;;49.25;22.77;;;;;;;10.85;100.00;100227.06;5051680;28;20041;-45
2023/04/28 05:52:09;;;;;;;60.55;27.80;;;;;;;10.85;100.00;100227.06;5051814;28;20041;-45
2023/04/28 05:54:35;;;;;;;61.38;27.25;;;;;;;10.85;100.00;100232.59;5051158;28;20037;-45
2023/04/28 05:57:02;;;;;;;52.97;25.40;;;;;;;10.86;100.00;100240.53;5051238;28;20053;-44
2023/04/28 05:59:30;;;;;;;61.00;29.63;;;;;;;10.90;100.00;100235.09;5050849;28;20071;-45
2023/04/28 06:01:57;;;;;;;59.85;25.25;;;;;;;10.90;100.00;100235.88;5050709;28;20049;-47
2023/04/28 06:04:24;;;;;;;59.03;26.38;;;;;;;10.94;100.00;100244.25;5051019;28;20072;-45
2023/04/28 06:06:52;;;;;;;59.05;28.27;;;;;;;10.98;100.00;100234.91;5050858;28;20060;-46
2023/04/28 06:09:19;;;;;;;55.00;27.23;;;;;;;11.03;100.00;100239.34;5050654;28;20047;-45
2023/04/28 06:11:45;;;;;;;54.58;26.30;;;;;;;11.09;100.00;100251.75;5050529;28;20402;-46
2023/04/28 06:14:12;;;;;;;54.10;25.75;;;;;;;11.14;100.00;100251.47;5040108;28;20048;-45
2023/04/28 06:16:39;;;;;;;51.13;26.25;;;;;;;11.20;100.00;100254.78;5042369;28;20044;-45
2023/04/28 06:19:06;;;;;;;52.22;24.35;;;;;;;11.26;100.00;100256.91;5050896;28;20041;-47
2023/04/28 06:21:33;;;;;;;50.30;25.90;;;;;;;11.31;100.00;100255.78;5050370;28;20045;-45
2023/04/28 06:24:00;;;;;;;54.08;23.85;;;;;;;11.32;100.00;100266.53;5050602;28;20048;-44
2023/04/28 06:26:28;;;;;;;50.55;24.67;;;;;;;11.36;100.00;100264.63;5049328;28;20053;-50
2023/04/28 06:28:55;;;;;;;50.95;25.20;;;;;;;11.38;100.00;100267.06;5049913;28;20072;-45
2023/04/28 06:31:22;;;;;;;51.78;24.35;;;;;;;11.36;100.00;100275.72;5058695;28;20514;-45
2023/04/28 06:33:48;;;;;;;51.05;24.40;;;;;;;11.32;100.00;100268.50;5049837;28;20068;-45
2023/04/28 06:36:16;;;;;;;55.75;27.50;;;;;;;11.33;100.00;100265.34;5050292;28;20060;-46
2023/04/28 06:38:44;;;;;;;47.38;24.52;;;;;;;11.34;100.00;100278.06;5050007;28;20053;-47
2023/04/28 06:41:11;;;;;;;53.25;26.75;;;;;;;11.37;100.00;100276.53;5050494;28;20049;-44
2023/04/28 06:43:38;;;;;;;48.95;26.42;;;;;;;11.38;100.00;100290.03;5049827;28;20045;-46
2023/04/28 06:46:05;;;;;;;53.22;25.80;;;;;;;11.38;100.00;100289.25;5051830;28;20079;-45
2023/04/28 06:48:32;;;;;;;63.97;28.48;;;;;;;11.38;100.00;100292.00;5050010;28;20059;-49
2023/04/28 06:50:58;;;;;;;51.55;26.02;;;;;;;11.37;100.00;100295.94;5049764;28;20494;-46
2023/04/28 06:53:25;;;;;;;50.55;24.00;;;;;;;11.39;100.00;100294.41;5049908;28;20044;-44
2023/04/28 06:55:52;;;;;;;51.55;23.83;;;;;;;11.43;100.00;100303.63;5049588;28;20091;-45
2023/04/28 06:58:19;;;;;;;48.85;22.75;;;;;;;11.46;100.00;100300.09;5049804;28;20041;-45
2023/04/28 07:00:46;;;;;;;45.78;22.38;;;;;;;11.49;100.00;100316.00;5060030;28;20072;-46
2023/04/28 07:03:13;;;;;;;43.25;22.08;;;;;;;11.50;100.00;100306.53;5049971;28;20044;-45
2023/04/28 07:05:40;;;;;;;44.40;23.30;;;;;;;11.52;100.00;100312.53;5049448;28;20044;-51
2023/04/28 07:08:06;;;;;;;41.50;21.52;;;;;;;11.56;100.00;100316.19;5046519;28;20071;-49
2023/04/28 07:10:33;;;;;;;40.70;20.73;;;;;;;11.59;100.00;100314.66;5049111;28;20041;-44
2023/04/28 07:13:00;;;;;;;45.78;22.90;;;;;;;11.60;100.00;100317.06;5049971;28;20037;-49
2023/04/28 07:15:27;;;;;;;40.22;21.13;;;;;;;11.65;100.00;100317.97;5049414;28;20474;-46
2023/04/28 07:17:54;;;;;;;40.47;21.25;;;;;;;11.69;100.00;100329.94;5049899;28;20056;-45
2023/04/28 07:20:21;;;;;;;40.03;20.50;;;;;;;11.72;100.00;100323.69;5048755;28;20045;-46
2023/04/28 07:22:48;;;;;;;39.70;21.08;;;;;;;11.76;100.00;100321.78;5038758;28;20511;-44
2023/04/28 07:25:14;;;;;;;41.38;21.08;;;;;;;11.82;100.00;100331.44;5028030;28;20076;-45
2023/04/28 07:27:41;;;;;;;35.38;18.50;;;;;;;11.85;100.00;100331.50;5048818;28;20633;-46
2023/04/28 07:30:08;;;;;;;40.42;21.25;;;;;;;11.91;100.00;100340.34;5055183;28;20036;-46
2023/04/28 07:32:53;;;;;;;34.08;18.90;;;;;;;11.97;100.00;100344.41;5038914;28;20072;-44
2023/04/28 07:35:27;;;;;;;35.20;20.30;;;;;;;12.02;100.00;100342.16;5052085;28;20045;-45
2023/04/28 07:37:54;;;;;;;33.55;17.65;;;;;;;12.07;100.00;100352.19;5048703;28;20099;-47
2023/04/28 07:40:21;;;;;;;32.50;16.83;;;;;;;12.09;100.00;100349.84;5048792;28;20044;-51
2023/04/28 07:42:48;;;;;;;31.30;18.27;;;;;;;12.12;100.00;100349.13;5049128;28;20049;-46
2023/04/28 07:45:15;;;;;;;33.38;18.02;;;;;;;12.15;100.00;100359.50;5051436;28;20486;-44
2023/04/28 07:47:42;;;;;;;30.80;16.60;;;;;;;12.24;100.00;100365.63;5047280;28;20029;-46
2023/04/28 07:50:10;;;;;;;27.25;16.55;;;;;;;12.32;100.00;100366.56;5048993;28;20055;-49
2023/04/28 07:52:37;;;;;;;23.13;14.00;;;;;;;12.35;100.00;100366.63;5048911;28;20165;-46
2023/04/28 07:55:05;;;;;;;22.77;14.88;;;;;;;12.40;100.00;100379.41;5048719;28;20052;-47
2023/04/28 07:57:31;;;;;;;26.15;14.52;;;;;;;12.43;100.00;100373.94;5048952;28;20041;-45
2023/04/28 07:59:58;;;;;;;24.20;13.88;;;;;;;12.47;100.00;100382.34;5048642;28;20084;-49
2023/04/28 08:02:26;;;;;;;23.98;13.25;;;;;;;12.49;100.00;100388.34;5042505;28;20052;-51
2023/04/28 08:04:53;;;;;;;25.63;15.02;;;;;;;12.51;100.00;100389.56;5045862;28;20045;-45
2023/04/28 08:07:20;;;;;;;19.83;12.45;;;;;;;12.56;100.00;100394.81;5048751;28;20063;-46
2023/04/28 08:09:47;;;;;;;19.45;11.88;;;;;;;12.58;100.00;100389.69;5045183;28;20136;-48
2023/04/28 08:12:14;;;;;;;17.75;11.02;;;;;;;12.59;100.00;100393.28;5037234;28;20057;-51
2023/04/28 08:14:42;;;;;;;16.50;10.20;;;;;;;12.62;100.00;100396.16;5029776;28;20057;-49
2023/04/28 08:17:09;;;;;;;14.55;9.20;;;;;;;12.63;100.00;100396.91;5028201;28;20119;-47
2023/04/28 08:19:36;;;;;;;20.88;11.25;;;;;;;12.66;100.00;100404.53;5028737;28;20129;-46
2023/04/28 08:22:04;;;;;;;14.38;8.25;;;;;;;12.73;100.00;100405.47;5038948;28;20057;-48
2023/04/28 08:24:35;;;;;;;14.18;9.00;;;;;;;12.73;100.00;100415.78;5042685;28;20441;-48
2023/04/28 08:27:02;;;;;;;12.48;7.05;;;;;;;12.75;100.00;100405.91;5042719;28;20135;-46
2023/04/28 08:29:30;;;;;;;7.78;5.93;;;;;;;12.77;100.00;100411.09;5042431;28;20135;-48
2023/04/28 08:32:00;;;;;;;6.72;5.25;;;;;;;12.78;100.00;100419.06;5041875;28;20061;-45
2023/04/28 08:34:26;;;;;;;8.57;5.88;;;;;;;12.78;100.00;100413.53;5041970;28;20065;-45
2023/04/28 08:36:53;;;;;;;6.78;5.30;;;;;;;12.78;100.00;100416.28;5041437;28;20037;-45
2023/04/28 08:39:22;;;;;;;6.30;4.68;;;;;;;12.80;100.00;100411.16;5042170;28;20071;-46
2023/04/28 08:41:49;;;;;;;7.57;5.10;;;;;;;12.81;100.00;100418.31;5042094;28;20053;-52
2023/04/28 08:44:17;;;;;;;8.02;4.68;;;;;;;12.84;100.00;100423.13;5031664;28;20449;-45
2023/04/28 08:46:46;;;;;;;6.03;5.22;;;;;;;12.90;100.00;100420.06;5027351;28;20130;-46
2023/04/28 08:49:17;;;;;;;5.25;4.30;;;;;;;12.97;100.00;100420.22;5010884;28;20679;-46
2023/04/28 08:51:49;;;;;;;3.47;2.90;;;;;;;13.06;100.00;100423.53;5029466;28;20452;-45
2023/04/28 08:54:17;;;;;;;4.22;3.03;;;;;;;13.21;100.00;100425.44;5031014;28;20041;-44
2023/04/28 08:56:55;;;;;;;3.60;2.60;;;;;;;13.35;100.00;100431.22;5037389;28;20048;-48
2023/04/28 08:59:22;;;;;;;3.28;2.80;;;;;;;13.46;100.00;100436.97;5043745;28;20052;-47
2023/04/28 09:01:50;;;;;;;3.08;2.83;;;;;;;13.52;100.00;100436.31;5034020;28;20052;-49
2023/04/28 09:04:17;;;;;;;3.25;2.88;;;;;;;13.54;100.00;100445.06;5030479;28;20048;-51
2023/04/28 09:06:45;;;;;;;2.65;2.15;;;;;;;13.55;100.00;100432.78;5031862;28;20092;-46
2023/04/28 09:09:21;;;;;;;3.28;2.42;;;;;;;13.67;100.00;100440.09;5032996;28;20559;-45
2023/04/28 09:11:54;;;;;;;2.65;2.20;;;;;;;13.79;100.00;100443.47;5033257;28;20037;-46
2023/04/28 09:14:22;;;;;;;2.40;2.20;;;;;;;13.84;99.76;100451.53;5044296;28;20439;-45
2023/04/28 09:16:50;;;;;;;2.42;2.22;;;;;;;13.84;99.60;100453.50;5043900;28;20119;-47
2023/04/28 09:19:17;;;;;;;1.00;0.90;;;;;;;13.83;99.22;100451.88;5043785;28;20059;-47
2023/04/28 09:21:53;;;;;;;2.15;1.23;;;;;;;13.82;99.22;100456.63;5042766;28;20498;-49
2023/04/28 09:24:34;;;;;;;2.42;1.48;;;;;;;13.84;99.12;100454.31;5043424;28;20467;-48
2023/04/28 09:27:03;;;;;;;1.33;1.23;;;;;;;13.90;99.05;100457.53;5042231;28;20532;-45
2023/04/28 09:29:31;;;;;;;1.60;1.35;;;;;;;13.92;98.81;100452.44;5043639;28;20072;-48
2023/04/28 09:32:21;;;;;;;3.05;1.30;;;;;;;13.91;98.70;100459.97;5025071;28;20045;-45
2023/04/28 09:34:51;;;;;;;1.25;1.15;;;;;;;13.94;98.62;100456.44;5043433;28;20398;-46
2023/04/28 09:37:19;;;;;;;1.50;1.40;;;;;;;13.96;98.37;100456.06;5042159;28;20417;-48
2023/04/28 09:39:49;;;;;;;2.20;1.83;;;;;;;13.96;98.05;100462.44;5043419;28;20059;-45
2023/04/28 09:42:34;;;;;;;3.58;2.30;;;;;;;13.93;97.91;100468.75;5043504;28;20056;-47
2023/04/28 09:45:05;;;;;;;3.22;2.97;;;;;;;13.94;98.05;100470.38;5042833;28;20052;-45
2023/04/28 09:47:35;;;;;;;3.53;2.78;;;;;;;14.04;98.05;100464.16;5042848;28;20552;-47
2023/04/28 09:50:10;;;;;;;3.85;2.42;;;;;;;14.21;97.86;100473.13;5043228;28;20049;-48
2023/04/28 09:52:37;;;;;;;2.55;2.35;;;;;;;14.31;97.56;100469.69;5042156;28;20076;-45
2023/04/28 09:55:07;;;;;;;2.63;2.28;;;;;;;14.40;97.65;100475.81;5024665;28;20437;-44
2023/04/28 09:57:35;;;;;;;2.88;2.30;;;;;;;14.44;97.71;100471.91;5042928;28;20072;-45
2023/04/28 10:00:07;;;;;;;2.63;1.52;;;;;;;14.48;97.59;100483.09;5042989;28;20045;-45
2023/04/28 10:02:36;;;;;;;1.52;1.42;;;;;;;14.45;97.40;100483.84;5024761;28;20088;-46
2023/04/28 10:05:08;;;;;;;1.87;1.30;;;;;;;14.39;97.28;100482.56;5041661;28;20053;-45
2023/04/28 10:07:36;;;;;;;2.70;1.33;;;;;;;14.34;97.22;100489.28;5042911;28;20199;-44
2023/04/28 10:10:05;;;;;;;1.50;1.13;;;;;;;14.31;97.39;100491.97;5042718;28;20063;-45
2023/04/28 10:12:32;;;;;;;1.63;1.40;;;;;;;14.38;97.60;100478.97;5041275;28;20068;-46
2023/04/28 10:14:58;;;;;;;1.40;0.95;;;;;;;14.58;97.86;100488.00;5031030;28;20057;-50
2023/04/28 10:17:28;;;;;;;0.77;0.73;;;;;;;14.84;96.72;100489.91;5030459;28;20056;-46
2023/04/28 10:19:56;;;;;;;2.08;0.95;;;;;;;14.92;96.13;100491.59;5028688;28;20048;-46
2023/04/28 10:22:48;;;;;;;0.70;0.63;;;;;;;15.00;96.00;100498.88;5029423;28;20057;-50
2023/04/28 10:25:31;;;;;;;2.03;0.82;;;;;;;15.22;95.88;100495.91;5030287;28;20068;-47
2023/04/28 10:27:59;;;;;;;1.20;0.80;;;;;;;15.40;95.17;100504.47;5030886;28;20060;-47
2023/04/28 10:30:30;;;;;;;1.63;0.70;;;;;;;15.51;94.70;100508.22;5029152;28;20055;-50
2023/04/28 10:33:12;;;;;;;1.20;1.07;;;;;;;15.65;94.34;100513.91;5030141;28;20048;-48
2023/04/28 10:35:44;;;;;;;1.98;1.20;;;;;;;15.65;93.84;100513.91;5037504;28;20053;-48
2023/04/28 10:38:20;;;;;;;1.02;0.68;;;;;;;15.61;93.43;100513.09;5042444;28;20056;-46
2023/04/28 10:40:48;;;;;;;1.65;0.60;;;;;;;15.70;93.39;100512.78;5042976;28;20099;-46
2023/04/28 10:43:25;;;;;;;0.63;0.50;;;;;;;15.96;92.23;100520.97;5041655;28;20048;-48
2023/04/28 10:45:55;;;;;;;1.85;0.85;;;;;;;15.97;91.43;100527.34;5041808;28;20057;-52
2023/04/28 10:48:32;;;;;;;0.60;0.60;;;;;;;15.79;91.33;100519.63;5041879;28;20602;-46
2023/04/28 10:51:03;;;;;;;0.77;0.77;;;;;;;15.64;91.40;100526.28;5040859;28;20053;-46
2023/04/28 10:53:45;;;;;;;1.83;0.75;;;;;;;15.48;91.39;100524.91;5042331;28;20057;-45
2023/04/28 10:56:20;;;;;;;1.02;0.93;;;;;;;15.31;91.23;100522.69;5042008;28;20140;-47
2023/04/28 10:58:59;;;;;;;1.35;1.00;;;;;;;15.16;91.27;100530.94;5041647;28;20548;-45
2023/04/28 11:01:33;;;;;;;1.55;0.95;;;;;;;15.07;91.00;100532.41;5029076;28;20076;-47
2023/04/28 11:04:12;;;;;;;0.95;0.80;;;;;;;15.03;90.67;100537.94;5029482;28;20053;-47
2023/04/28 11:06:44;;;;;;;1.50;1.08;;;;;;;15.10;90.39;100537.22;5028929;28;20056;-46
2023/04/28 11:09:11;;;;;;;1.38;1.10;;;;;;;15.17;90.01;100537.28;5031035;28;20384;-45
2023/04/28 11:11:39;;;;;;;0.77;0.77;;;;;;;15.32;89.54;100541.06;5028756;28;20045;-46